Station: Oenpelli Airport  

  Atmospheric Gas Attenuation - ITU Rec 676-11   ----------------- dB/100km -----------------
Date Time Temp RH % AH g/m3 Dew Point Wind Direction Speed kph Gust kph Barometer mB Rainfall Since 9am 24GHz 47GHz 76GHz 122GHz 134GHz 241GHz
07/09 03:20 22 85 16.5 19.4 0 0 1015.5 0 35.9 36.8 68.5 181.0 195.3 677.8
07/09 03:10 22.5 83 16.58 19.5 4 6 1015.6 0 36.0 36.7 68.4 180.8 195.2 677.5
07/09 03:00 22.8 82 16.66 19.6 4 6 1015.6 0 36.2 36.8 68.5 181.1 195.6 679.1
07/09 02:50 23.3 81 16.93 19.8 6 6 1015.7 0 36.7 37.0 69.3 183.2 198.4 688.7
07/09 02:40 23.6 82 17.44 20.3 0 0 1015.8 0 37.8 37.9 71.4 188.8 205.3 712.8
07/09 02:30 23.7 81 17.32 20.2 0 0 1015.7 0 37.5 37.6 70.8 187.0 203.2 705.5
07/09 02:20 23.8 81 17.42 20.3 2 4 1015.6 0 37.7 37.7 71.1 188.0 204.4 709.8
07/09 02:10 23.6 82 17.44 20.3 4 4 1015.5 0 37.8 37.9 71.4 188.7 205.3 712.6
07/09 02:00 23.6 81 17.23 20.1 4 4 1015.4 0 37.3 37.5 70.4 186.1 202.1 701.5
07/09 01:50 23.6 81 17.23 20.1 4 4 1015.5 0 37.3 37.5 70.4 186.1 202.1 701.6
07/09 01:40 23.7 80 17.11 20 4 4 1015.6 0 37.1 37.2 69.8 184.4 200.0 694.4
07/09 01:30 23.8 80 17.21 20.1 6 6 1015.6 0 37.3 37.3 70.1 185.4 201.3 698.8
07/09 01:20 24 79 17.19 20.1 6 6 1015.7 0 37.2 37.2 69.9 184.7 200.4 695.9
07/09 01:10 23.9 79 17.09 20 4 6 1015.7 0 37.0 37.1 69.5 183.7 199.2 691.6
07/09 01:00 23.8 79 16.99 19.9 4 4 1015.8 0 36.8 36.9 69.2 182.8 198.0 687.4
07/09 00:50 23.9 79 17.09 20 4 6 1015.9 0 37.0 37.1 69.5 183.8 199.2 691.7
07/09 00:40 23.9 79 17.09 20 6 7 1015.9 0 37.0 37.1 69.5 183.8 199.2 691.7
07/09 00:30 24.1 77 16.85 19.8 6 9 1015.8 0 36.5 36.6 68.2 180.4 195.1 677.4
07/09 00:20 24.3 77 17.04 20 6 9 1015.9 0 36.8 36.8 68.9 182.2 197.4 685.5
07/09 00:10 24.4 77 17.14 20.1 7 9 1016 0 37.1 37.0 69.3 183.2 198.7 689.8
07/09 00:00 24.5 76 17.01 20 7 11 1016 0 36.8 36.7 68.6 181.4 196.5 682.2
06/09 23:50 24.5 76 17.01 20 9 13 1016 0 36.8 36.7 68.6 181.4 196.5 682.2
06/09 23:40 24.5 76 17.01 20 9 11 1016 0 36.8 36.7 68.6 181.4 196.5 682.2
06/09 23:30 24.6 76 17.1 20.1 9 13 1016 0 36.9 36.8 68.9 182.2 197.6 686.0
06/09 23:20 24.6 75 16.88 19.9 7 9 1016 0 36.5 36.4 67.9 179.6 194.3 674.7
06/09 23:10 24.8 73 16.62 19.6 7 9 1016 0 35.9 35.9 66.6 176.0 190.0 659.6
06/09 23:00 25 72 16.57 19.6 7 9 1016 0 35.8 35.7 66.2 175.0 188.8 655.4
06/09 22:50 25.2 71 16.53 19.6 7 9 1015.8 0 35.7 35.5 65.9 174.0 187.7 651.6
06/09 22:40 25.2 70 16.3 19.3 7 9 1015.8 0 35.2 35.1 64.8 171.3 184.3 640.0
06/09 22:30 25.2 68 15.83 18.9 4 6 1015.8 0 34.2 34.3 62.8 165.8 177.6 616.7
06/09 22:20 25.4 66 15.54 18.6 4 7 1015.9 0 33.6 33.7 61.4 162.1 173.1 600.9
06/09 22:10 25.5 64 15.15 18.2 6 7 1015.9 0 32.7 33.0 59.6 157.5 167.4 581.2
06/09 22:00 25.7 63 15.08 18.1 6 7 1015.9 0 32.6 32.8 59.2 156.3 166.0 576.3
06/09 21:50 25.9 60 14.53 17.5 7 9 1015.8 0 31.4 31.8 56.7 149.8 158.1 548.6
06/09 21:40 26 57 13.88 16.8 7 11 1015.6 0 30.0 30.7 54.0 142.5 149.2 517.5
06/09 21:30 26.2 54 13.29 16.2 9 11 1015.5 0 28.8 29.7 51.5 135.8 141.0 489.1
06/09 21:20 26.1 52 12.73 15.5 7 9 1015.4 0 27.6 28.8 49.4 130.1 134.0 464.4
06/09 21:10 26.3 53 13.12 16 7 9 1015.3 0 28.4 29.3 50.8 133.8 138.6 480.7
06/09 21:00 26.4 53 13.19 16.1 7 9 1015.1 0 28.6 29.4 51.0 134.4 139.3 483.2
06/09 20:50 26.5 53 13.27 16.1 6 7 1014.9 0 28.7 29.5 51.2 135.0 140.2 486.1
06/09 20:40 26.7 52 13.16 16 6 7 1014.8 0 28.5 29.3 50.6 133.5 138.4 479.9
06/09 20:30 26.8 52 13.24 16.1 6 9 1014.6 0 28.6 29.3 50.9 134.2 139.2 482.8
06/09 20:20 27.5 50 13.23 16.1 4 7 1014.5 0 28.6 29.1 50.4 132.9 137.8 478.1
06/09 20:10 27.6 49 13.04 15.9 4 6 1014.3 0 28.2 28.8 49.6 130.7 135.2 469.0
06/09 20:00 28.4 48 13.34 16.3 6 9 1014.1 0 28.7 29.0 50.2 132.5 137.6 477.4
06/09 19:50 28.8 47 13.36 16.4 9 13 1014 0 28.8 28.9 50.0 132.0 137.1 475.8
06/09 19:40 29 46 13.21 16.2 9 13 1013.7 0 28.4 28.5 49.3 130.1 134.9 468.0
06/09 19:30 29.3 46 13.43 16.5 9 15 1013.4 0 28.9 28.8 50.0 131.8 137.1 475.7
06/09 19:20 29.5 45 13.28 16.3 7 11 1013.2 0 28.6 28.5 49.3 129.9 134.9 467.9
06/09 19:10 29.9 45 13.58 16.7 9 11 1013.1 0 29.1 28.8 50.1 132.3 137.9 478.5
06/09 19:00 30.3 44 13.56 16.7 9 13 1012.9 0 29.1 28.6 49.8 131.4 136.9 475.2
06/09 18:50 30.5 44 13.71 16.9 11 15 1012.9 0 29.4 28.8 50.3 132.6 138.4 480.5
06/09 18:40 31 42 13.44 16.6 11 17 1012.7 0 28.8 28.2 48.9 129.1 134.2 465.9
06/09 18:30 31.6 41 13.55 16.7 13 19 1012.5 0 29.0 28.2 49.0 129.2 134.5 467.0
06/09 18:20 32.2 41 13.99 17.3 11 17 1012.3 0 29.8 28.7 50.2 132.5 138.8 482.0
06/09 18:10 32.9 40 14.17 17.5 13 17 1012.1 0 30.2 28.7 50.4 133.1 139.7 485.4
06/09 18:00 33.2 39 14.04 17.4 19 24 1011.9 0 29.9 28.4 49.8 131.3 137.6 478.0
06/09 17:50 34 39 14.64 18.1 19 22 1011.8 0 31.0 29.0 51.5 135.9 143.4 498.4
06/09 17:40 34.6 38 14.72 18.2 19 28 1011.6 0 31.2 29.0 51.4 135.6 143.3 498.0
06/09 17:30 35.5 31 12.58 15.8 4 7 1011.5 0 26.7 25.6 43.3 114.1 117.0 406.1
06/09 17:20 35.1 31 12.33 15.4 0 4 1011.3 0 26.2 25.4 42.6 112.3 114.7 398.2
06/09 17:10 34.7 32 12.46 15.6 4 7 1011.3 0 26.5 25.7 43.3 114.0 116.8 405.3
06/09 17:00 34.9 31 12.2 15.3 7 13 1011.3 0 26.0 25.2 42.3 111.4 113.6 394.1
06/09 16:50 35.1 31 12.33 15.4 9 13 1011.3 0 26.2 25.4 42.6 112.3 114.7 398.2
06/09 16:40 35.2 30 11.99 15 6 11 1011.2 0 25.5 24.9 41.4 109.1 110.8 384.5
06/09 16:30 35.8 29 11.96 15 11 20 1011.1 0 25.4 24.7 41.0 108.0 109.7 380.5
06/09 16:20 36.4 29 12.33 15.5 7 13 1011.1 0 26.2 25.0 41.9 110.5 112.9 391.9
06/09 16:10 36.5 30 12.83 16.1 7 15 1011.1 0 27.2 25.7 43.6 114.9 118.3 410.8
06/09 16:00 36.6 29 12.46 15.7 7 13 1011.1 0 26.4 25.1 42.3 111.4 114.1 396.0
06/09 15:50 35.2 31 12.39 15.5 7 13 1011.2 0 26.4 25.4 42.8 112.7 115.3 400.1
06/09 15:40 36.1 30 12.56 15.8 13 20 1011.3 0 26.6 25.4 42.9 113.0 115.9 402.3
06/09 15:30 37.2 28 12.41 15.6 11 19 1011.3 0 26.3 24.9 41.8 110.2 112.7 391.2
06/09 15:20 35.8 30 12.37 15.5 4 9 1011.4 0 26.3 25.2 42.4 111.7 114.2 396.4
06/09 15:10 36.4 30 12.76 16 13 22 1011.6 0 27.0 25.6 43.4 114.5 117.7 408.7
06/09 15:00 36.5 30 12.83 16.1 13 19 1011.6 0 27.2 25.7 43.6 114.9 118.3 410.9
06/09 14:50 36.4 30 12.76 16 9 24 1011.7 0 27.0 25.6 43.4 114.5 117.7 408.7
06/09 14:40 36.6 30 12.89 16.2 11 22 1011.9 0 27.3 25.7 43.7 115.4 118.9 412.9
06/09 14:30 35.8 31 12.78 16 15 22 1012.1 0 27.1 25.8 43.8 115.5 118.8 412.6
06/09 14:20 35.7 31 12.72 15.9 13 24 1012.2 0 27.0 25.8 43.7 115.1 118.3 410.8
06/09 14:10 36.2 32 13.47 16.9 9 19 1012.4 0 28.5 26.7 46.0 121.3 126.1 437.9
06/09 14:00 36 32 13.33 16.7 11 19 1012.6 0 28.2 26.6 45.6 120.3 124.8 433.5
06/09 13:50 35.6 33 13.47 16.8 13 20 1012.8 0 28.5 26.9 46.3 122.2 127.0 441.3
06/09 13:40 35 34 13.45 16.8 11 19 1013 0 28.5 27.0 46.6 123.0 127.8 443.8
06/09 13:30 35.3 34 13.66 17 11 19 1013.2 0 28.9 27.3 47.2 124.5 129.8 450.7
06/09 13:20 34.8 35 13.7 17.1 9 22 1013.4 0 29.1 27.5 47.6 125.7 131.1 455.2
06/09 13:10 34.5 36 13.87 17.3 9 17 1013.6 0 29.4 27.8 48.4 127.8 133.6 464.0
06/09 13:00 34.5 35 13.49 16.8 15 24 1013.8 0 28.6 27.3 47.1 124.2 129.1 448.5
06/09 12:50 34.9 36 14.17 17.6 9 19 1014 0 30.0 28.1 49.3 130.1 136.5 474.2
06/09 12:40 34.1 38 14.34 17.8 6 11 1014.3 0 30.4 28.7 50.4 133.1 139.9 486.1
06/09 12:30 33.6 40 14.7 18.1 9 20 1014.5 0 31.2 29.4 52.1 137.5 145.2 504.5
06/09 12:20 33.7 40 14.78 18.2 9 17 1014.7 0 31.3 29.5 52.3 138.1 146.0 507.4
06/09 12:10 33.5 40 14.63 18 7 15 1014.9 0 31.1 29.3 51.9 137.0 144.6 502.3
06/09 12:00 32.7 44 15.42 18.8 4 9 1015.2 0 32.7 30.8 55.4 146.4 155.9 541.9
06/09 11:50 33 43 15.31 18.7 7 13 1015.4 0 32.5 30.5 54.8 144.8 154.0 535.1
06/09 11:40 32.3 45 15.44 18.8 9 17 1015.7 0 32.8 31.0 55.8 147.4 157.0 545.7
06/09 11:30 32.9 44 15.59 19 7 17 1015.8 0 33.1 31.0 56.0 147.9 157.7 548.2
06/09 11:20 31.7 47 15.62 19 4 7 1016.1 0 33.2 31.5 57.0 150.5 160.6 558.1
06/09 11:10 32.4 46 15.87 19.3 6 15 1016.4 0 33.7 31.7 57.5 151.8 162.4 564.4
06/09 11:00 32.4 44 15.18 18.6 7 15 1016.6 0 32.3 30.6 54.8 144.7 153.7 533.9
06/09 10:50 31.3 45 14.64 17.9 9 17 1016.9 0 31.2 30.1 53.5 141.2 149.0 517.5

Last Refresh: 07-Sep-2026 03:27:14

Bureau of Meteorology